Time;durP1;ratioP1;P1;durP2;ratioP2;P2;SDS_P1;SDS_P2;PMS_P1;PMS_P2;Temp;Humidity;BMP_temperature;BMP_pressure;BME280_temperature;BME280_humidity;BME280_pressure;Samples;Min_cycle;Max_cycle;Signal;HPM_P1;HPM_P2
2023/07/18 00:00:27;;;;;;;0.50;0.40;;;14.90;99.90;;;;;;5068929;28;20432;-82
2023/07/18 00:02:54;;;;;;;0.50;0.40;;;14.80;99.90;;;;;;5068409;28;20542;-83
2023/07/18 00:05:22;;;;;;;2.73;1.67;;;14.80;99.90;;;;;;5068718;28;20455;-82
2023/07/18 00:07:49;;;;;;;0.50;0.40;;;14.80;99.90;;;;;;5069003;28;20447;-82
2023/07/18 00:10:20;;;;;;;0.50;0.40;;;14.80;99.90;;;;;;5068754;28;20431;-82
2023/07/18 00:12:47;;;;;;;0.50;0.40;;;14.80;99.90;;;;;;5068296;28;20489;-83
2023/07/18 00:15:14;;;;;;;0.50;0.40;;;14.80;99.90;;;;;;5069065;28;20530;-82
2023/07/18 00:17:42;;;;;;;0.50;0.40;;;14.90;99.90;;;;;;5072452;28;20503;-83
2023/07/18 00:20:12;;;;;;;0.50;0.40;;;14.80;99.90;;;;;;5072444;28;20465;-80
2023/07/18 00:22:40;;;;;;;0.50;0.50;;;14.80;99.90;;;;;;5071038;28;20514;-82
2023/07/18 00:25:11;;;;;;;0.50;0.40;;;14.80;99.90;;;;;;5072649;28;20471;-83
2023/07/18 00:27:39;;;;;;;0.50;0.40;;;14.80;99.90;;;;;;5071921;28;20474;-83
2023/07/18 00:30:08;;;;;;;0.50;0.40;;;14.80;99.90;;;;;;5072627;28;20435;-83
2023/07/18 00:32:35;;;;;;;0.50;0.40;;;14.80;99.90;;;;;;5071895;28;20443;-82
2023/07/18 00:35:04;;;;;;;0.50;0.40;;;14.70;99.90;;;;;;5071205;28;20471;-81
2023/07/18 00:37:31;;;;;;;0.50;0.40;;;14.70;99.90;;;;;;5071925;28;20432;-83
2023/07/18 00:39:58;;;;;;;0.50;0.40;;;14.80;99.90;;;;;;5071293;28;21086;-84
2023/07/18 00:42:24;;;;;;;0.50;0.40;;;14.80;99.90;;;;;;5071031;28;20435;-83
2023/07/18 00:44:53;;;;;;;0.50;0.40;;;14.80;99.90;;;;;;5071223;28;20485;-82
2023/07/18 00:47:20;;;;;;;0.50;0.40;;;14.70;99.90;;;;;;5070963;28;20509;-82
2023/07/18 00:49:47;;;;;;;0.50;0.40;;;14.70;99.90;;;;;;5071354;28;20467;-83
2023/07/18 00:52:15;;;;;;;0.50;0.40;;;14.70;99.90;;;;;;5070820;28;20475;-82
2023/07/18 00:54:43;;;;;;;0.50;0.40;;;14.70;99.90;;;;;;5070883;28;20522;-83
2023/07/18 00:57:12;;;;;;;0.50;0.40;;;14.70;99.90;;;;;;5071011;28;21008;-83
2023/07/18 00:59:39;;;;;;;0.50;0.40;;;14.70;99.90;;;;;;5070772;28;20954;-81
2023/07/18 01:02:09;;;;;;;0.50;0.40;;;14.70;99.90;;;;;;5061869;28;20432;-82
2023/07/18 01:04:36;;;;;;;0.50;0.40;;;14.70;99.90;;;;;;5071296;28;20483;-84
2023/07/18 01:07:04;;;;;;;0.50;0.40;;;14.60;99.90;;;;;;5071692;28;20521;-83
2023/07/18 01:09:31;;;;;;;0.50;0.40;;;14.60;99.90;;;;;;5072456;28;20520;-83
2023/07/18 01:11:58;;;;;;;0.50;0.40;;;14.60;99.90;;;;;;5072116;28;20462;-83
2023/07/18 01:14:25;;;;;;;0.50;0.40;;;14.50;99.90;;;;;;5072136;28;20566;-83
2023/07/18 01:16:53;;;;;;;0.50;0.40;;;14.50;99.90;;;;;;5072500;28;20436;-84
2023/07/18 01:19:22;;;;;;;0.50;0.40;;;14.50;99.90;;;;;;5072146;28;20509;-83
2023/07/18 01:21:50;;;;;;;0.50;0.40;;;14.50;99.90;;;;;;5072007;28;20614;-83
2023/07/18 01:24:18;;;;;;;0.50;0.40;;;14.50;99.90;;;;;;5072334;28;20539;-84
2023/07/18 01:26:44;;;;;;;0.50;0.40;;;14.50;99.90;;;;;;5070783;28;20485;-83
2023/07/18 01:29:11;;;;;;;0.50;0.40;;;14.50;99.90;;;;;;5072171;28;20805;-83
2023/07/18 01:31:38;;;;;;;0.50;0.40;;;14.40;99.90;;;;;;5072039;28;20444;-82
2023/07/18 01:34:05;;;;;;;0.50;0.40;;;14.40;99.90;;;;;;5071460;28;20448;-83
2023/07/18 01:36:32;;;;;;;0.50;0.40;;;14.40;99.90;;;;;;5072092;28;20454;-83
2023/07/18 01:39:00;;;;;;;0.50;0.40;;;14.40;99.90;;;;;;5072445;28;20454;-84
2023/07/18 01:41:27;;;;;;;0.50;0.40;;;14.30;99.90;;;;;;5072172;28;20435;-84
2023/07/18 01:43:54;;;;;;;0.50;0.40;;;14.30;99.90;;;;;;5072951;28;20463;-84
2023/07/18 01:46:21;;;;;;;0.50;0.40;;;14.30;99.90;;;;;;5071371;28;20479;-83
2023/07/18 01:48:48;;;;;;;0.50;0.40;;;14.30;99.90;;;;;;5071765;28;20475;-83
2023/07/18 01:51:15;;;;;;;0.50;0.40;;;14.30;99.90;;;;;;5071783;28;20439;-83
2023/07/18 01:53:42;;;;;;;0.50;0.40;;;14.20;99.90;;;;;;5071374;28;20466;-83
2023/07/18 01:56:10;;;;;;;0.50;0.40;;;14.20;99.90;;;;;;5071389;28;20455;-83
2023/07/18 01:58:37;;;;;;;0.60;0.40;;;14.20;99.90;;;;;;5071350;28;20958;-84
2023/07/18 02:01:04;;;;;;;0.50;0.40;;;14.20;99.90;;;;;;5071121;28;20447;-80
2023/07/18 02:03:31;;;;;;;0.50;0.40;;;14.20;99.90;;;;;;5070966;28;20467;-84
2023/07/18 02:05:58;;;;;;;0.50;0.40;;;14.10;99.90;;;;;;5071125;28;20436;-81
2023/07/18 02:08:25;;;;;;;0.50;0.40;;;14.10;99.90;;;;;;5071371;28;20463;-84
2023/07/18 02:10:52;;;;;;;0.50;0.40;;;14.00;99.90;;;;;;5071590;28;20488;-83
2023/07/18 02:13:21;;;;;;;0.50;0.40;;;14.00;99.90;;;;;;5070476;28;20857;-83
2023/07/18 02:15:47;;;;;;;0.50;0.40;;;14.00;99.90;;;;;;5070883;28;20443;-83
2023/07/18 02:18:14;;;;;;;0.50;0.40;;;13.90;99.90;;;;;;5070914;28;20443;-82
2023/07/18 02:20:42;;;;;;;0.50;0.40;;;13.90;99.90;;;;;;5070993;28;20435;-83
2023/07/18 02:23:09;;;;;;;0.50;0.40;;;13.90;99.90;;;;;;5071051;28;20440;-83
2023/07/18 02:25:35;;;;;;;0.50;0.40;;;13.80;99.90;;;;;;5071065;28;20943;-83
2023/07/18 02:28:02;;;;;;;0.50;0.40;;;13.80;99.90;;;;;;5069881;28;20896;-83
2023/07/18 02:30:32;;;;;;;0.50;0.40;;;13.80;99.90;;;;;;5070594;28;20469;-82
2023/07/18 02:32:59;;;;;;;0.50;0.40;;;13.90;99.90;;;;;;5069882;28;20434;-81
2023/07/18 02:35:26;;;;;;;0.50;0.40;;;13.90;99.90;;;;;;5070619;28;20502;-84
2023/07/18 02:37:53;;;;;;;0.50;0.40;;;13.90;99.90;;;;;;5070103;28;20472;-83
2023/07/18 02:40:20;;;;;;;0.50;0.40;;;13.90;99.90;;;;;;5068722;28;20499;-82
2023/07/18 02:42:46;;;;;;;0.50;0.40;;;13.90;99.90;;;;;;5068831;28;20527;-84
2023/07/18 02:45:13;;;;;;;0.50;0.40;;;13.80;99.90;;;;;;5069324;28;20490;-83
2023/07/18 02:47:42;;;;;;;0.50;0.40;;;13.90;99.90;;;;;;5070207;28;20495;-82
2023/07/18 02:50:09;;;;;;;0.50;0.40;;;13.90;99.90;;;;;;5069788;28;20496;-83
2023/07/18 02:52:36;;;;;;;0.50;0.40;;;13.90;99.90;;;;;;5068733;28;20503;-84
2023/07/18 02:55:04;;;;;;;0.50;0.40;;;14.00;99.90;;;;;;5069138;28;20459;-82
2023/07/18 02:57:31;;;;;;;0.50;0.40;;;14.00;99.90;;;;;;5070249;28;20436;-82
2023/07/18 02:59:58;;;;;;;0.50;0.40;;;13.90;99.90;;;;;;5069861;28;20469;-83
2023/07/18 03:02:25;;;;;;;0.50;0.40;;;13.90;99.90;;;;;;5069263;28;20593;-83
2023/07/18 03:04:53;;;;;;;0.50;0.40;;;13.90;99.90;;;;;;5070044;28;21014;-84
2023/07/18 03:07:20;;;;;;;0.50;0.40;;;13.90;99.90;;;;;;5071427;28;20467;-84
2023/07/18 03:09:46;;;;;;;0.50;0.40;;;13.90;99.90;;;;;;5069530;28;20439;-84
2023/07/18 03:12:13;;;;;;;0.50;0.40;;;13.90;99.90;;;;;;5069722;28;20470;-81
2023/07/18 03:14:41;;;;;;;0.50;0.43;;;14.00;99.90;;;;;;5069309;28;20490;-84
2023/07/18 03:17:08;;;;;;;0.50;0.40;;;14.00;99.90;;;;;;5069542;28;20438;-83
2023/07/18 03:19:35;;;;;;;0.50;0.40;;;13.90;99.90;;;;;;5069204;28;20454;-83
2023/07/18 03:22:03;;;;;;;0.50;0.40;;;14.00;99.90;;;;;;5068495;28;20491;-84
2023/07/18 03:24:33;;;;;;;0.50;0.40;;;13.90;99.90;;;;;;5069131;28;20459;-83
2023/07/18 03:27:00;;;;;;;0.50;0.40;;;13.90;99.90;;;;;;5069061;28;20505;-83
2023/07/18 03:29:27;;;;;;;0.50;0.40;;;13.90;99.90;;;;;;5067928;28;20518;-83
2023/07/18 03:31:54;;;;;;;0.50;0.40;;;13.90;99.90;;;;;;5067304;28;20442;-83
2023/07/18 03:34:20;;;;;;;0.50;0.40;;;13.90;99.90;;;;;;5067631;28;21219;-83
2023/07/18 03:36:47;;;;;;;0.50;0.40;;;13.80;99.90;;;;;;5067485;28;20463;-83
2023/07/18 03:39:16;;;;;;;0.50;0.40;;;13.80;99.90;;;;;;5067115;28;20477;-83
2023/07/18 03:41:42;;;;;;;0.50;0.40;;;13.80;99.90;;;;;;5066938;28;20997;-82
2023/07/18 03:44:09;;;;;;;0.50;0.40;;;13.80;99.90;;;;;;5066769;28;20474;-83
2023/07/18 03:46:36;;;;;;;0.50;0.40;;;13.80;99.90;;;;;;5067811;28;22343;-82
2023/07/18 03:49:03;;;;;;;0.50;0.40;;;13.80;99.90;;;;;;5067918;28;20447;-83
2023/07/18 03:51:30;;;;;;;0.50;0.40;;;13.80;99.90;;;;;;5071403;28;20955;-79
2023/07/18 03:53:57;;;;;;;0.50;0.40;;;13.80;99.90;;;;;;5071523;28;20454;-83
2023/07/18 03:56:25;;;;;;;0.50;0.40;;;13.80;99.90;;;;;;5071594;28;20437;-83
2023/07/18 03:58:52;;;;;;;0.50;0.40;;;13.70;99.90;;;;;;5071892;28;20459;-82
2023/07/18 04:01:19;;;;;;;0.50;0.40;;;13.70;99.90;;;;;;5071860;28;20494;-83
2023/07/18 04:03:46;;;;;;;0.50;0.40;;;13.70;99.90;;;;;;5070437;28;20527;-82
2023/07/18 04:06:12;;;;;;;0.50;0.40;;;13.70;99.90;;;;;;5070875;28;20510;-84
2023/07/18 04:08:40;;;;;;;0.50;0.40;;;13.70;99.90;;;;;;5071476;28;20505;-83
2023/07/18 04:11:07;;;;;;;0.50;0.40;;;13.80;99.90;;;;;;5071009;28;20494;-84
2023/07/18 04:13:35;;;;;;;0.50;0.40;;;13.70;99.90;;;;;;5070688;28;20486;-84
2023/07/18 04:16:02;;;;;;;0.50;0.40;;;13.70;99.90;;;;;;5071252;28;20433;-83
2023/07/18 04:18:28;;;;;;;0.50;0.40;;;13.80;99.90;;;;;;5071102;28;20488;-83
2023/07/18 04:21:00;;;;;;;0.50;0.40;;;13.80;99.90;;;;;;5071511;28;20436;-83
2023/07/18 04:23:27;;;;;;;0.50;0.40;;;13.80;99.90;;;;;;5070789;28;20455;-83
2023/07/18 04:25:56;;;;;;;0.50;0.40;;;13.90;99.90;;;;;;5070216;28;20494;-83
2023/07/18 04:28:23;;;;;;;1.87;1.53;;;13.90;99.90;;;;;;5062525;28;20479;-82
2023/07/18 04:30:51;;;;;;;1.00;0.97;;;13.90;99.90;;;;;;5072064;28;20494;-80
2023/07/18 04:33:18;;;;;;;0.50;0.40;;;14.00;99.90;;;;;;5069657;28;20432;-84
2023/07/18 04:35:45;;;;;;;0.50;0.40;;;14.10;99.90;;;;;;5070459;28;20431;-81
2023/07/18 04:38:12;;;;;;;0.50;0.40;;;14.10;99.90;;;;;;5070551;28;20431;-82
2023/07/18 04:40:39;;;;;;;2.20;2.00;;;14.10;99.90;;;;;;5075685;28;20438;-86
2023/07/18 04:43:06;;;;;;;0.50;0.40;;;14.20;99.90;;;;;;5067805;28;20518;-83
2023/07/18 04:45:33;;;;;;;0.50;0.40;;;14.20;99.90;;;;;;5065684;28;20486;-83
2023/07/18 04:48:03;;;;;;;0.50;0.40;;;14.30;99.90;;;;;;5069830;28;20474;-81
2023/07/18 04:50:30;;;;;;;0.50;0.50;;;14.30;99.90;;;;;;5070730;28;20436;-83
2023/07/18 04:52:57;;;;;;;0.50;0.40;;;14.30;99.90;;;;;;5068893;28;20447;-84
2023/07/18 04:55:25;;;;;;;2.60;2.50;;;14.40;99.90;;;;;;5069739;28;20990;-82
2023/07/18 04:57:52;;;;;;;0.50;0.40;;;14.40;99.90;;;;;;5069727;28;20443;-83
2023/07/18 05:00:19;;;;;;;0.50;0.40;;;14.40;99.90;;;;;;5069896;28;20503;-80
2023/07/18 05:02:46;;;;;;;0.50;0.40;;;14.50;99.90;;;;;;5067865;28;20446;-83
2023/07/18 05:05:14;;;;;;;0.50;0.40;;;14.50;99.90;;;;;;5069772;28;20927;-81
2023/07/18 05:07:44;;;;;;;0.50;0.40;;;14.50;99.90;;;;;;5069031;28;20468;-83
2023/07/18 05:10:11;;;;;;;0.50;0.40;;;14.50;99.90;;;;;;5069397;28;20496;-80
2023/07/18 05:12:38;;;;;;;0.50;0.40;;;14.60;99.90;;;;;;5069144;28;20518;-83
2023/07/18 05:15:06;;;;;;;0.50;0.40;;;14.60;99.90;;;;;;5068591;28;20467;-79
2023/07/18 05:17:33;;;;;;;0.50;0.40;;;14.70;99.90;;;;;;5068456;28;20507;-82
2023/07/18 05:19:59;;;;;;;0.50;0.40;;;14.70;99.90;;;;;;5069317;28;20526;-81
2023/07/18 05:22:28;;;;;;;0.50;0.40;;;14.70;99.90;;;;;;5068718;28;20515;-84
2023/07/18 05:24:55;;;;;;;0.50;0.50;;;14.80;99.90;;;;;;5069513;28;20469;-83
2023/07/18 05:27:22;;;;;;;0.73;0.40;;;14.80;99.90;;;;;;5069316;28;20538;-82
2023/07/18 05:29:49;;;;;;;0.50;0.40;;;14.90;99.90;;;;;;5069467;28;20439;-81
2023/07/18 05:32:16;;;;;;;0.50;0.40;;;14.90;99.90;;;;;;5067724;28;20503;-84
2023/07/18 05:34:43;;;;;;;0.50;0.40;;;15.00;99.90;;;;;;5068680;28;20483;-83
2023/07/18 05:37:10;;;;;;;0.50;0.40;;;15.10;99.90;;;;;;5068925;28;20462;-81
2023/07/18 05:39:39;;;;;;;0.50;0.40;;;15.10;99.90;;;;;;5068730;28;20435;-82
2023/07/18 05:42:06;;;;;;;0.50;0.40;;;15.20;99.90;;;;;;5067459;28;20443;-82
2023/07/18 05:44:33;;;;;;;0.50;0.40;;;15.30;99.90;;;;;;5069285;28;20460;-84
2023/07/18 05:47:00;;;;;;;1.33;1.13;;;15.40;99.90;;;;;;5069033;28;20498;-83
2023/07/18 05:49:27;;;;;;;0.50;0.40;;;15.50;99.90;;;;;;5068962;28;20505;-83
2023/07/18 05:51:54;;;;;;;0.50;0.30;;;15.60;99.90;;;;;;5068791;28;20449;-83
2023/07/18 05:54:22;;;;;;;0.50;0.40;;;15.70;99.90;;;;;;5067604;28;20463;-83
2023/07/18 05:56:50;;;;;;;0.50;0.40;;;15.80;99.90;;;;;;5068341;28;20444;-83
2023/07/18 05:59:17;;;;;;;0.50;0.40;;;15.90;99.90;;;;;;5067773;28;20605;-82
2023/07/18 06:01:45;;;;;;;0.90;0.60;;;15.90;99.90;;;;;;5067498;28;20444;-84
2023/07/18 06:04:15;;;;;;;0.50;0.40;;;16.10;99.90;;;;;;5067441;28;20468;-82
2023/07/18 06:06:43;;;;;;;0.50;0.40;;;16.10;99.90;;;;;;5067072;28;20923;-84
2023/07/18 06:09:10;;;;;;;0.50;0.40;;;16.20;99.90;;;;;;5065230;28;20992;-80
2023/07/18 06:11:38;;;;;;;0.50;0.40;;;16.40;99.90;;;;;;5065320;28;20436;-81
2023/07/18 06:14:06;;;;;;;0.50;0.40;;;16.50;99.90;;;;;;5065970;28;20536;-81
2023/07/18 06:16:33;;;;;;;0.50;0.40;;;16.60;99.90;;;;;;5064133;28;20446;-82
2023/07/18 06:19:00;;;;;;;0.50;0.40;;;16.70;99.90;;;;;;5066523;28;20469;-82
2023/07/18 06:21:27;;;;;;;0.50;0.40;;;16.90;99.90;;;;;;5065556;28;20467;-83
2023/07/18 06:23:54;;;;;;;0.50;0.40;;;17.10;99.90;;;;;;5066236;28;20481;-84
2023/07/18 06:26:23;;;;;;;1.00;0.87;;;17.40;99.90;;;;;;5065785;28;21026;-83
2023/07/18 06:28:51;;;;;;;0.50;0.40;;;17.50;99.90;;;;;;5065322;28;20478;-81
2023/07/18 06:31:19;;;;;;;0.50;0.40;;;17.60;99.90;;;;;;5065296;28;20944;-83
2023/07/18 06:33:47;;;;;;;0.50;0.37;;;17.90;99.90;;;;;;5065847;28;20945;-83
2023/07/18 06:36:15;;;;;;;0.50;0.30;;;18.00;99.90;;;;;;5066855;28;20535;-83
2023/07/18 06:38:42;;;;;;;0.50;0.30;;;18.70;99.90;;;;;;5066344;28;21050;-82
2023/07/18 06:41:09;;;;;;;0.50;0.40;;;18.90;99.90;;;;;;5066145;28;21017;-84
2023/07/18 06:43:36;;;;;;;0.50;0.40;;;18.80;99.90;;;;;;5066704;28;20854;-84
2023/07/18 06:46:03;;;;;;;0.50;0.30;;;19.20;99.90;;;;;;5067111;28;20440;-83
2023/07/18 06:48:31;;;;;;;0.50;0.30;;;20.00;99.90;;;;;;5066391;28;20472;-83
2023/07/18 06:50:59;;;;;;;0.50;0.40;;;20.70;99.90;;;;;;5067435;28;20439;-84
2023/07/18 06:53:26;;;;;;;0.50;0.40;;;21.20;99.90;;;;;;5065693;28;20468;-83
2023/07/18 06:55:54;;;;;;;0.50;0.33;;;21.60;99.90;;;;;;5067099;28;20433;-83
2023/07/18 06:58:21;;;;;;;0.50;0.30;;;22.10;99.90;;;;;;5066682;28;20447;-83
2023/07/18 07:00:50;;;;;;;0.50;0.37;;;22.90;99.90;;;;;;5066787;28;20522;-79
2023/07/18 07:03:17;;;;;;;0.50;0.40;;;23.60;99.90;;;;;;5066240;28;20952;-83
2023/07/18 07:05:45;;;;;;;0.50;0.30;;;23.80;99.90;;;;;;5067759;28;20458;-82
2023/07/18 07:08:13;;;;;;;0.50;0.40;;;24.10;99.90;;;;;;5067144;28;20502;-83
2023/07/18 07:10:41;;;;;;;0.50;0.40;;;24.20;99.90;;;;;;5066610;28;20470;-84
2023/07/18 07:13:09;;;;;;;0.50;0.40;;;24.50;99.90;;;;;;5065882;28;20909;-84
2023/07/18 07:15:36;;;;;;;0.50;0.40;;;24.00;99.90;;;;;;5067365;28;20509;-84
2023/07/18 07:18:04;;;;;;;0.50;0.30;;;24.40;99.90;;;;;;5067535;28;20507;-81
2023/07/18 07:20:32;;;;;;;0.50;0.30;;;24.00;97.90;;;;;;5065811;28;20515;-82
2023/07/18 07:23:01;;;;;;;0.50;0.40;;;24.30;99.50;;;;;;5066004;28;20475;-84
2023/07/18 07:25:30;;;;;;;4.20;1.63;;;24.50;97.40;;;;;;5066715;28;20448;-83
2023/07/18 07:27:57;;;;;;;0.50;0.30;;;24.30;98.70;;;;;;5066638;28;20545;-83
2023/07/18 07:30:24;;;;;;;0.50;0.30;;;24.60;99.90;;;;;;5066426;28;20512;-83
2023/07/18 07:32:52;;;;;;;0.50;0.30;;;24.90;97.80;;;;;;5066013;28;20448;-83
2023/07/18 07:35:19;;;;;;;1.27;0.77;;;25.10;95.90;;;;;;5066702;28;20460;-82
2023/07/18 07:37:47;;;;;;;0.50;0.50;;;25.20;93.60;;;;;;5065618;28;20497;-84
2023/07/18 07:40:15;;;;;;;0.50;0.30;;;25.50;93.40;;;;;;5066020;28;20523;-82
2023/07/18 07:42:44;;;;;;;0.50;0.30;;;25.90;90.90;;;;;;5056700;28;20449;-82
2023/07/18 07:45:12;;;;;;;0.50;0.30;;;25.80;88.60;;;;;;5066129;28;20459;-84
2023/07/18 07:47:39;;;;;;;0.50;0.30;;;25.70;87.60;;;;;;5064859;28;20495;-82
2023/07/18 07:50:07;;;;;;;0.50;0.50;;;26.10;90.00;;;;;;5063527;28;20484;-82
2023/07/18 07:52:35;;;;;;;0.50;0.30;;;25.80;86.60;;;;;;5063664;28;20472;-83
2023/07/18 07:55:02;;;;;;;0.50;0.30;;;26.00;85.10;;;;;;5065932;28;20458;-84
2023/07/18 07:57:30;;;;;;;0.50;0.30;;;26.00;88.00;;;;;;5066440;28;20435;-83
2023/07/18 07:59:57;;;;;;;0.50;0.37;;;26.10;84.70;;;;;;5067652;28;20492;-84
2023/07/18 08:02:24;;;;;;;0.50;0.30;;;26.20;82.60;;;;;;5067121;28;20500;-84
2023/07/18 08:04:51;;;;;;;0.50;0.30;;;25.90;85.30;;;;;;5070128;28;20467;-83
2023/07/18 08:07:18;;;;;;;0.50;0.30;;;26.30;85.90;;;;;;5067267;28;20497;-84
2023/07/18 08:09:45;;;;;;;0.50;0.40;;;26.60;86.60;;;;;;5066951;28;20481;-84
2023/07/18 08:12:13;;;;;;;0.50;0.37;;;26.80;86.60;;;;;;5066689;28;20468;-84
2023/07/18 08:14:41;;;;;;;0.50;0.40;;;27.20;82.90;;;;;;5066039;28;20464;-84
2023/07/18 08:17:08;;;;;;;0.50;0.30;;;27.80;81.10;;;;;;5067360;28;20436;-82
2023/07/18 08:19:35;;;;;;;0.50;0.40;;;28.40;79.80;;;;;;5067093;28;20440;-84
2023/07/18 08:22:02;;;;;;;0.50;0.30;;;28.10;77.00;;;;;;5066445;28;20466;-83
2023/07/18 08:24:29;;;;;;;0.70;0.53;;;28.30;78.00;;;;;;5066962;28;20522;-85
2023/07/18 08:26:56;;;;;;;0.50;0.30;;;28.20;73.00;;;;;;5066585;28;20540;-84
2023/07/18 08:29:24;;;;;;;0.50;0.30;;;27.90;74.00;;;;;;5066161;28;20494;-84
2023/07/18 08:31:53;;;;;;;0.50;0.30;;;28.00;74.40;;;;;;5064344;28;20512;-84
2023/07/18 08:34:20;;;;;;;0.50;0.30;;;27.90;77.30;;;;;;5063737;28;20471;-82
2023/07/18 08:36:47;;;;;;;0.50;0.40;;;28.00;75.70;;;;;;5067351;28;20434;-84
2023/07/18 08:39:14;;;;;;;0.50;0.30;;;28.30;74.50;;;;;;5069841;28;20428;-83
2023/07/18 08:41:44;;;;;;;0.50;0.40;;;27.90;71.30;;;;;;5070052;28;20447;-84
2023/07/18 08:44:13;;;;;;;0.50;0.30;;;28.40;71.40;;;;;;5069343;28;20475;-84
2023/07/18 08:46:41;;;;;;;0.50;0.30;;;28.40;71.60;;;;;;5069285;28;20459;-84
2023/07/18 08:49:13;;;;;;;0.50;0.30;;;28.70;73.90;;;;;;5067333;28;20487;-83
2023/07/18 08:51:41;;;;;;;0.50;0.30;;;29.20;69.70;;;;;;5065219;28;20468;-84
2023/07/18 08:54:08;;;;;;;0.50;0.30;;;29.60;68.50;;;;;;5064453;28;20462;-83
2023/07/18 08:56:35;;;;;;;0.50;0.30;;;29.00;67.20;;;;;;5064932;28;20582;-82
2023/07/18 08:59:02;;;;;;;0.50;0.30;;;29.30;69.50;;;;;;5063438;28;20435;-82
2023/07/18 09:01:29;;;;;;;0.50;0.30;;;29.80;65.40;;;;;;5063554;28;20538;-82
2023/07/18 09:03:56;;;;;;;0.50;0.40;;;29.30;68.70;;;;;;5064870;28;20472;-82
2023/07/18 09:06:26;;;;;;;0.50;0.40;;;30.00;72.60;;;;;;5065130;28;20525;-80
2023/07/18 09:08:55;;;;;;;0.47;0.30;;;30.30;64.40;;;;;;5067951;28;20475;-85
2023/07/18 09:11:24;;;;;;;0.80;0.70;;;30.10;62.40;;;;;;5067645;28;20475;-82
2023/07/18 09:13:51;;;;;;;0.50;0.30;;;30.00;60.80;;;;;;5058435;28;20538;-83
2023/07/18 09:16:20;;;;;;;0.50;0.30;;;29.20;64.60;;;;;;5066812;28;20515;-84
2023/07/18 09:18:49;;;;;;;0.73;0.73;;;29.40;66.50;;;;;;5066901;28;20507;-82
2023/07/18 09:21:16;;;;;;;0.50;0.30;;;29.40;65.00;;;;;;5065974;28;20447;-80
2023/07/18 09:23:45;;;;;;;0.50;0.30;;;29.80;62.20;;;;;;5065083;28;20523;-82
2023/07/18 09:26:15;;;;;;;1.60;0.70;;;30.00;63.50;;;;;;5062803;28;20526;-84
2023/07/18 09:28:42;;;;;;;0.50;0.30;;;30.20;61.30;;;;;;5065836;28;20543;-82
2023/07/18 09:31:19;;;;;;;0.50;0.40;;;30.00;59.10;;;;;;5064648;28;20957;-82
2023/07/18 09:33:46;;;;;;;0.60;0.50;;;29.40;59.40;;;;;;5064985;28;20452;-82
2023/07/18 09:36:18;;;;;;;0.50;0.30;;;29.10;65.50;;;;;;5070337;28;20495;-85
2023/07/18 09:38:48;;;;;;;0.50;0.30;;;28.20;61.80;;;;;;5064689;28;20519;-81
2023/07/18 09:41:17;;;;;;;0.50;0.40;;;28.00;64.80;;;;;;5063423;28;20439;-80
2023/07/18 09:43:44;;;;;;;0.50;0.30;;;27.80;65.00;;;;;;5067159;28;20471;-82
2023/07/18 09:46:13;;;;;;;0.50;0.30;;;27.60;65.30;;;;;;5065329;28;20459;-83
2023/07/18 09:48:41;;;;;;;0.50;0.30;;;27.00;63.80;;;;;;5064409;28;20471;-81
2023/07/18 09:51:10;;;;;;;0.50;0.30;;;26.50;66.50;;;;;;5065402;28;20443;-83
2023/07/18 09:53:38;;;;;;;0.50;0.40;;;26.60;69.00;;;;;;5066105;28;20503;-83
2023/07/18 09:56:08;;;;;;;0.50;0.30;;;26.70;67.50;;;;;;5065725;28;20437;-81
2023/07/18 09:58:39;;;;;;;0.53;0.37;;;27.30;66.70;;;;;;5067685;28;20431;-82
2023/07/18 10:01:09;;;;;;;0.50;0.30;;;27.60;68.20;;;;;;5068835;28;20442;-84
2023/07/18 10:03:37;;;;;;;0.50;0.30;;;27.20;65.30;;;;;;5065957;28;20461;-83
2023/07/18 10:06:06;;;;;;;0.50;0.30;;;27.00;68.80;;;;;;5064333;28;20472;-81
2023/07/18 10:08:33;;;;;;;0.50;0.30;;;27.10;65.90;;;;;;5065382;28;20498;-83
2023/07/18 10:11:02;;;;;;;0.50;0.30;;;27.10;64.60;;;;;;5067639;28;20972;-82
2023/07/18 10:13:32;;;;;;;0.50;0.30;;;27.20;67.10;;;;;;5063248;28;20479;-82
2023/07/18 10:16:20;;;;;;;0.63;0.60;;;27.90;67.30;;;;;;5054480;28;20443;-82
2023/07/18 10:18:48;;;;;;;0.50;0.40;;;28.10;64.90;;;;;;5060958;28;20444;-81
2023/07/18 10:21:29;;;;;;;1.20;0.80;;;27.30;67.70;;;;;;5063072;28;20490;-80
2023/07/18 10:23:56;;;;;;;0.60;0.40;;;26.40;65.80;;;;;;5065166;28;21006;-83
2023/07/18 10:26:30;;;;;;;0.50;0.30;;;25.40;69.30;;;;;;5066657;28;20915;-83
2023/07/18 10:29:02;;;;;;;0.50;0.30;;;24.80;77.30;;;;;;5066046;28;20467;-83
2023/07/18 10:31:36;;;;;;;0.50;0.30;;;24.70;81.00;;;;;;5064797;28;20896;-82
2023/07/18 10:34:10;;;;;;;0.50;0.30;;;24.50;73.50;;;;;;5065201;28;20459;-83
2023/07/18 10:36:38;;;;;;;0.50;0.40;;;24.30;73.80;;;;;;5065745;28;20446;-83
2023/07/18 10:39:10;;;;;;;0.50;0.30;;;24.00;76.60;;;;;;5065721;28;20492;-81
2023/07/18 10:41:37;;;;;;;0.50;0.40;;;23.70;76.40;;;;;;5062246;28;20440;-80
2023/07/18 10:44:10;;;;;;;0.50;0.30;;;23.70;78.70;;;;;;5061410;28;20524;-81
2023/07/18 10:46:38;;;;;;;0.50;0.30;;;23.90;77.30;;;;;;5063635;28;20491;-81
2023/07/18 10:49:05;;;;;;;0.50;0.30;;;23.70;77.10;;;;;;5062345;28;20555;-82
2023/07/18 10:51:33;;;;;;;0.50;0.30;;;23.70;79.10;;;;;;5061553;28;20519;-80
2023/07/18 10:54:00;;;;;;;0.50;0.30;;;23.90;88.60;;;;;;5062602;28;20480;-81
2023/07/18 10:56:27;;;;;;;0.50;0.30;;;24.00;89.50;;;;;;5063390;28;20476;-81
2023/07/18 10:58:56;;;;;;;0.50;0.40;;;24.00;88.30;;;;;;5062293;28;20440;-83
2023/07/18 11:01:26;;;;;;;0.50;0.40;;;24.10;93.00;;;;;;5060558;28;20883;-82
2023/07/18 11:03:53;;;;;;;0.50;0.30;;;24.20;83.00;;;;;;5061339;28;20462;-81
2023/07/18 11:06:22;;;;;;;0.50;0.30;;;24.40;90.60;;;;;;5062041;28;20450;-84
2023/07/18 11:08:49;;;;;;;2.30;2.10;;;24.70;93.30;;;;;;5066409;28;20448;-83
2023/07/18 11:11:18;;;;;;;0.50;0.30;;;24.70;82.80;;;;;;5065148;28;20504;-78
2023/07/18 11:13:45;;;;;;;0.50;0.30;;;25.00;79.10;;;;;;5064829;28;20483;-83
2023/07/18 11:16:14;;;;;;;0.50;0.30;;;25.20;80.60;;;;;;5063827;28;20925;-83
2023/07/18 11:18:44;;;;;;;0.50;0.30;;;25.10;81.70;;;;;;5065891;28;20436;-83
2023/07/18 11:21:12;;;;;;;0.50;0.33;;;25.10;79.10;;;;;;5063160;28;20442;-84
2023/07/18 11:23:40;;;;;;;0.90;0.40;;;25.40;79.20;;;;;;5062313;28;20444;-82
2023/07/18 11:26:12;;;;;;;0.50;0.40;;;25.40;77.10;;;;;;5061096;28;20429;-81
2023/07/18 11:28:39;;;;;;;0.50;0.30;;;26.00;78.60;;;;;;5059587;28;20520;-81
2023/07/18 11:31:06;;;;;;;0.50;0.40;;;27.20;77.10;;;;;;5059214;28;20444;-83
2023/07/18 11:33:34;;;;;;;0.50;0.30;;;28.10;69.80;;;;;;5063758;28;20487;-81
2023/07/18 11:36:09;;;;;;;0.50;0.30;;;28.80;72.50;;;;;;5061752;28;20442;-81
2023/07/18 11:38:37;;;;;;;0.50;0.30;;;29.40;69.40;;;;;;5063312;28;20453;-83
2023/07/18 11:41:05;;;;;;;0.50;0.30;;;29.50;67.20;;;;;;5054852;28;20450;-84
2023/07/18 11:43:32;;;;;;;0.50;0.30;;;29.60;64.70;;;;;;5062401;28;20531;-81
2023/07/18 11:45:59;;;;;;;0.53;0.40;;;29.80;68.00;;;;;;5062726;28;20949;-81
2023/07/18 11:48:27;;;;;;;0.50;0.30;;;29.40;64.70;;;;;;5062192;28;20473;-83
2023/07/18 11:50:54;;;;;;;0.50;0.30;;;28.70;65.40;;;;;;5064306;28;20476;-83
2023/07/18 11:53:28;;;;;;;0.50;0.30;;;28.40;70.00;;;;;;5057666;28;20795;-82
2023/07/18 11:55:56;;;;;;;0.50;0.30;;;28.40;68.10;;;;;;5061083;28;20530;-81
2023/07/18 11:58:24;;;;;;;0.50;0.30;;;28.40;68.10;;;;;;5059464;28;20436;-83
2023/07/18 12:00:51;;;;;;;0.50;0.33;;;28.90;68.70;;;;;;5059738;28;20428;-81
2023/07/18 12:03:18;;;;;;;0.50;0.30;;;29.10;65.80;;;;;;5060077;28;20522;-82
2023/07/18 12:05:44;;;;;;;0.47;0.40;;;29.30;64.80;;;;;;5061722;28;20534;-79
2023/07/18 12:08:13;;;;;;;0.50;0.30;;;29.90;64.50;;;;;;5063867;28;20496;-81
2023/07/18 12:10:41;;;;;;;0.50;0.30;;;30.00;64.60;;;;;;5061538;28;20889;-83
2023/07/18 12:13:08;;;;;;;0.50;0.30;;;30.20;61.80;;;;;;5062639;28;20999;-81
2023/07/18 12:15:35;;;;;;;0.70;0.60;;;29.60;62.40;;;;;;5061945;28;20518;-81
2023/07/18 12:18:02;;;;;;;0.50;0.30;;;29.70;64.30;;;;;;5064318;28;20460;-83
2023/07/18 12:20:28;;;;;;;0.50;0.30;;;30.10;65.20;;;;;;5064793;28;20500;-83
2023/07/18 12:22:55;;;;;;;0.50;0.30;;;31.10;60.90;;;;;;5063223;28;21071;-81
2023/07/18 12:25:22;;;;;;;0.50;0.30;;;30.70;58.00;;;;;;5064445;28;20460;-80
2023/07/18 12:27:50;;;;;;;0.50;0.30;;;29.90;59.40;;;;;;5065027;28;20451;-84
2023/07/18 12:30:17;;;;;;;0.50;0.30;;;30.00;62.90;;;;;;5062281;28;20569;-81
2023/07/18 12:32:45;;;;;;;0.50;0.30;;;30.50;60.90;;;;;;5064658;28;20527;-83
2023/07/18 12:35:12;;;;;;;0.50;0.30;;;31.10;58.50;;;;;;5063462;28;20510;-82
2023/07/18 12:37:39;;;;;;;0.50;0.30;;;31.30;59.20;;;;;;5065712;28;20444;-83
2023/07/18 12:40:08;;;;;;;0.50;0.40;;;31.10;58.40;;;;;;5065571;28;20504;-81
2023/07/18 12:42:34;;;;;;;0.50;0.30;;;30.30;58.40;;;;;;5062189;28;20447;-81
2023/07/18 12:45:03;;;;;;;0.50;0.30;;;28.90;58.90;;;;;;5063434;28;20478;-82
2023/07/18 12:47:30;;;;;;;0.50;0.30;;;28.50;60.70;;;;;;5063588;28;20517;-82
2023/07/18 12:49:57;;;;;;;0.50;0.30;;;28.90;62.00;;;;;;5062687;28;20468;-82